sensor_id;sensor_type;location;lat;lon;timestamp;P1;durP1;ratioP1;P2;durP2;ratioP2
2538;SDS011;1280;49.760;9.664;2023-10-08T00:01:02;10.27;;;4.10;;
2538;SDS011;1280;49.760;9.664;2023-10-08T00:03:34;10.67;;;3.80;;
2538;SDS011;1280;49.760;9.664;2023-10-08T00:06:04;8.70;;;3.73;;
2538;SDS011;1280;49.760;9.664;2023-10-08T00:08:39;10.93;;;4.13;;
2538;SDS011;1280;49.760;9.664;2023-10-08T00:11:07;11.43;;;4.63;;
2538;SDS011;1280;49.760;9.664;2023-10-08T00:13:37;9.73;;;4.00;;
2538;SDS011;1280;49.760;9.664;2023-10-08T00:16:08;9.93;;;3.90;;
2538;SDS011;1280;49.760;9.664;2023-10-08T00:18:38;9.10;;;4.03;;
2538;SDS011;1280;49.760;9.664;2023-10-08T00:21:09;11.40;;;4.63;;
2538;SDS011;1280;49.760;9.664;2023-10-08T00:23:50;7.90;;;4.10;;
2538;SDS011;1280;49.760;9.664;2023-10-08T00:26:19;7.43;;;3.60;;
2538;SDS011;1280;49.760;9.664;2023-10-08T00:28:55;7.57;;;3.27;;
2538;SDS011;1280;49.760;9.664;2023-10-08T00:31:23;11.83;;;4.40;;
2538;SDS011;1280;49.760;9.664;2023-10-08T00:33:58;9.20;;;4.03;;
2538;SDS011;1280;49.760;9.664;2023-10-08T00:36:26;9.43;;;3.90;;
2538;SDS011;1280;49.760;9.664;2023-10-08T00:38:54;13.50;;;3.77;;
2538;SDS011;1280;49.760;9.664;2023-10-08T00:41:26;12.93;;;4.63;;
2538;SDS011;1280;49.760;9.664;2023-10-08T00:43:57;8.03;;;4.07;;
2538;SDS011;1280;49.760;9.664;2023-10-08T00:46:28;13.03;;;4.70;;
2538;SDS011;1280;49.760;9.664;2023-10-08T00:49:00;10.50;;;4.17;;
2538;SDS011;1280;49.760;9.664;2023-10-08T00:51:46;8.60;;;4.10;;
2538;SDS011;1280;49.760;9.664;2023-10-08T00:54:14;8.33;;;3.77;;
2538;SDS011;1280;49.760;9.664;2023-10-08T00:56:45;8.47;;;4.17;;
2538;SDS011;1280;49.760;9.664;2023-10-08T00:59:20;8.87;;;3.70;;
2538;SDS011;1280;49.760;9.664;2023-10-08T01:01:50;9.60;;;4.23;;
2538;SDS011;1280;49.760;9.664;2023-10-08T01:04:26;11.63;;;4.17;;
2538;SDS011;1280;49.760;9.664;2023-10-08T01:06:55;12.23;;;4.63;;
2538;SDS011;1280;49.760;9.664;2023-10-08T01:09:28;9.97;;;4.23;;
2538;SDS011;1280;49.760;9.664;2023-10-08T01:12:08;11.33;;;4.47;;
2538;SDS011;1280;49.760;9.664;2023-10-08T01:14:39;11.07;;;4.23;;
2538;SDS011;1280;49.760;9.664;2023-10-08T01:17:09;11.50;;;4.23;;
2538;SDS011;1280;49.760;9.664;2023-10-08T01:19:50;13.10;;;4.57;;
2538;SDS011;1280;49.760;9.664;2023-10-08T01:22:24;10.37;;;4.27;;
2538;SDS011;1280;49.760;9.664;2023-10-08T01:24:56;11.10;;;3.40;;
2538;SDS011;1280;49.760;9.664;2023-10-08T01:27:29;17.70;;;4.60;;
2538;SDS011;1280;49.760;9.664;2023-10-08T01:30:00;13.70;;;4.10;;
2538;SDS011;1280;49.760;9.664;2023-10-08T01:32:38;11.50;;;4.20;;
2538;SDS011;1280;49.760;9.664;2023-10-08T01:35:07;9.70;;;4.40;;
2538;SDS011;1280;49.760;9.664;2023-10-08T01:37:50;12.10;;;5.30;;
2538;SDS011;1280;49.760;9.664;2023-10-08T01:40:18;10.83;;;3.90;;
2538;SDS011;1280;49.760;9.664;2023-10-08T01:42:49;14.00;;;4.70;;
2538;SDS011;1280;49.760;9.664;2023-10-08T01:45:19;9.20;;;3.53;;
2538;SDS011;1280;49.760;9.664;2023-10-08T01:47:52;8.70;;;4.03;;
2538;SDS011;1280;49.760;9.664;2023-10-08T01:50:21;11.93;;;4.40;;
2538;SDS011;1280;49.760;9.664;2023-10-08T01:52:53;11.33;;;3.80;;
2538;SDS011;1280;49.760;9.664;2023-10-08T01:55:21;10.17;;;3.73;;
2538;SDS011;1280;49.760;9.664;2023-10-08T01:57:50;12.33;;;5.40;;
2538;SDS011;1280;49.760;9.664;2023-10-08T02:00:22;11.43;;;4.83;;
2538;SDS011;1280;49.760;9.664;2023-10-08T02:02:53;13.77;;;4.90;;
2538;SDS011;1280;49.760;9.664;2023-10-08T02:05:32;9.57;;;3.50;;
2538;SDS011;1280;49.760;9.664;2023-10-08T02:08:11;11.27;;;4.70;;
2538;SDS011;1280;49.760;9.664;2023-10-08T02:10:49;9.00;;;4.20;;
2538;SDS011;1280;49.760;9.664;2023-10-08T02:13:32;15.43;;;5.10;;
2538;SDS011;1280;49.760;9.664;2023-10-08T02:16:03;15.47;;;4.57;;
2538;SDS011;1280;49.760;9.664;2023-10-08T02:18:34;13.60;;;5.17;;
2538;SDS011;1280;49.760;9.664;2023-10-08T02:21:04;10.60;;;4.43;;
2538;SDS011;1280;49.760;9.664;2023-10-08T02:23:34;8.77;;;4.60;;
2538;SDS011;1280;49.760;9.664;2023-10-08T02:26:05;10.03;;;4.53;;
2538;SDS011;1280;49.760;9.664;2023-10-08T02:28:49;10.40;;;4.17;;
2538;SDS011;1280;49.760;9.664;2023-10-08T02:31:17;11.53;;;4.53;;
2538;SDS011;1280;49.760;9.664;2023-10-08T02:33:52;9.97;;;4.50;;
2538;SDS011;1280;49.760;9.664;2023-10-08T02:36:29;10.70;;;4.57;;
2538;SDS011;1280;49.760;9.664;2023-10-08T02:38:59;11.70;;;4.90;;
2538;SDS011;1280;49.760;9.664;2023-10-08T02:41:33;11.83;;;4.57;;
2538;SDS011;1280;49.760;9.664;2023-10-08T02:44:01;16.53;;;5.30;;
2538;SDS011;1280;49.760;9.664;2023-10-08T02:46:32;14.73;;;4.70;;
2538;SDS011;1280;49.760;9.664;2023-10-08T02:49:00;12.70;;;5.10;;
2538;SDS011;1280;49.760;9.664;2023-10-08T02:51:30;11.80;;;4.37;;
2538;SDS011;1280;49.760;9.664;2023-10-08T02:53:59;12.03;;;4.73;;
2538;SDS011;1280;49.760;9.664;2023-10-08T02:56:32;9.30;;;4.70;;
2538;SDS011;1280;49.760;9.664;2023-10-08T02:59:01;14.80;;;4.80;;
2538;SDS011;1280;49.760;9.664;2023-10-08T03:01:30;11.03;;;4.87;;
2538;SDS011;1280;49.760;9.664;2023-10-08T03:04:00;11.17;;;4.27;;
2538;SDS011;1280;49.760;9.664;2023-10-08T03:06:35;10.37;;;4.83;;
2538;SDS011;1280;49.760;9.664;2023-10-08T03:09:06;8.77;;;3.63;;
2538;SDS011;1280;49.760;9.664;2023-10-08T03:11:35;11.40;;;4.30;;
2538;SDS011;1280;49.760;9.664;2023-10-08T03:14:03;10.80;;;4.90;;
2538;SDS011;1280;49.760;9.664;2023-10-08T03:16:31;9.50;;;3.50;;
2538;SDS011;1280;49.760;9.664;2023-10-08T03:19:01;13.63;;;4.97;;
2538;SDS011;1280;49.760;9.664;2023-10-08T03:21:32;11.27;;;4.53;;
2538;SDS011;1280;49.760;9.664;2023-10-08T03:24:18;9.90;;;4.37;;
2538;SDS011;1280;49.760;9.664;2023-10-08T03:27:04;16.93;;;4.67;;
2538;SDS011;1280;49.760;9.664;2023-10-08T03:29:34;9.90;;;4.43;;
2538;SDS011;1280;49.760;9.664;2023-10-08T03:32:11;12.13;;;5.07;;
2538;SDS011;1280;49.760;9.664;2023-10-08T03:34:46;10.50;;;5.30;;
2538;SDS011;1280;49.760;9.664;2023-10-08T03:37:17;12.43;;;4.30;;
2538;SDS011;1280;49.760;9.664;2023-10-08T03:39:57;11.07;;;4.70;;
2538;SDS011;1280;49.760;9.664;2023-10-08T03:42:47;14.67;;;4.50;;
2538;SDS011;1280;49.760;9.664;2023-10-08T03:45:15;10.67;;;4.00;;
2538;SDS011;1280;49.760;9.664;2023-10-08T03:47:51;14.30;;;5.00;;
2538;SDS011;1280;49.760;9.664;2023-10-08T03:50:30;13.33;;;4.93;;
2538;SDS011;1280;49.760;9.664;2023-10-08T03:53:07;10.40;;;4.40;;
2538;SDS011;1280;49.760;9.664;2023-10-08T03:55:39;15.13;;;5.00;;
2538;SDS011;1280;49.760;9.664;2023-10-08T03:58:08;8.53;;;3.67;;
2538;SDS011;1280;49.760;9.664;2023-10-08T04:00:43;15.17;;;4.07;;
2538;SDS011;1280;49.760;9.664;2023-10-08T04:03:12;12.80;;;4.80;;
2538;SDS011;1280;49.760;9.664;2023-10-08T04:05:50;9.77;;;3.90;;
2538;SDS011;1280;49.760;9.664;2023-10-08T04:08:31;12.13;;;5.00;;
2538;SDS011;1280;49.760;9.664;2023-10-08T04:11:11;11.27;;;4.77;;
2538;SDS011;1280;49.760;9.664;2023-10-08T04:13:57;15.60;;;4.90;;
2538;SDS011;1280;49.760;9.664;2023-10-08T04:16:28;10.93;;;4.70;;
2538;SDS011;1280;49.760;9.664;2023-10-08T04:18:57;19.80;;;5.20;;
2538;SDS011;1280;49.760;9.664;2023-10-08T04:21:29;8.33;;;3.90;;
2538;SDS011;1280;49.760;9.664;2023-10-08T04:24:00;10.43;;;4.30;;
2538;SDS011;1280;49.760;9.664;2023-10-08T04:26:32;11.57;;;5.10;;
2538;SDS011;1280;49.760;9.664;2023-10-08T04:29:01;8.70;;;4.43;;
2538;SDS011;1280;49.760;9.664;2023-10-08T04:31:33;14.50;;;4.90;;
2538;SDS011;1280;49.760;9.664;2023-10-08T04:34:04;13.77;;;5.20;;
2538;SDS011;1280;49.760;9.664;2023-10-08T04:36:36;9.33;;;4.20;;
2538;SDS011;1280;49.760;9.664;2023-10-08T04:39:06;9.97;;;4.50;;
2538;SDS011;1280;49.760;9.664;2023-10-08T04:41:41;14.83;;;4.80;;
2538;SDS011;1280;49.760;9.664;2023-10-08T04:44:10;12.50;;;4.93;;
2538;SDS011;1280;49.760;9.664;2023-10-08T04:46:41;10.97;;;4.90;;
2538;SDS011;1280;49.760;9.664;2023-10-08T04:49:21;14.50;;;4.80;;
2538;SDS011;1280;49.760;9.664;2023-10-08T04:51:54;11.67;;;4.40;;
2538;SDS011;1280;49.760;9.664;2023-10-08T04:54:25;14.37;;;4.50;;
2538;SDS011;1280;49.760;9.664;2023-10-08T04:56:58;11.33;;;5.13;;
2538;SDS011;1280;49.760;9.664;2023-10-08T04:59:29;11.83;;;5.00;;
2538;SDS011;1280;49.760;9.664;2023-10-08T05:02:01;8.93;;;4.60;;
2538;SDS011;1280;49.760;9.664;2023-10-08T05:04:51;12.70;;;4.67;;
2538;SDS011;1280;49.760;9.664;2023-10-08T05:07:48;9.43;;;4.67;;
2538;SDS011;1280;49.760;9.664;2023-10-08T05:10:44;12.43;;;4.87;;
2538;SDS011;1280;49.760;9.664;2023-10-08T05:13:28;11.37;;;4.53;;
2538;SDS011;1280;49.760;9.664;2023-10-08T05:16:11;13.90;;;4.50;;
2538;SDS011;1280;49.760;9.664;2023-10-08T05:18:56;9.97;;;5.17;;
2538;SDS011;1280;49.760;9.664;2023-10-08T05:21:51;9.60;;;4.50;;
2538;SDS011;1280;49.760;9.664;2023-10-08T05:24:32;12.53;;;4.67;;
2538;SDS011;1280;49.760;9.664;2023-10-08T05:27:05;12.43;;;4.87;;
2538;SDS011;1280;49.760;9.664;2023-10-08T05:29:52;13.60;;;5.77;;
2538;SDS011;1280;49.760;9.664;2023-10-08T05:32:43;13.20;;;4.37;;
2538;SDS011;1280;49.760;9.664;2023-10-08T05:35:32;13.67;;;5.60;;
2538;SDS011;1280;49.760;9.664;2023-10-08T05:38:29;12.17;;;4.80;;
2538;SDS011;1280;49.760;9.664;2023-10-08T05:41:15;11.77;;;5.17;;
2538;SDS011;1280;49.760;9.664;2023-10-08T05:43:57;12.77;;;5.00;;
2538;SDS011;1280;49.760;9.664;2023-10-08T05:46:44;10.20;;;5.07;;
2538;SDS011;1280;49.760;9.664;2023-10-08T05:49:33;11.50;;;4.77;;
2538;SDS011;1280;49.760;9.664;2023-10-08T05:52:20;14.10;;;5.23;;
2538;SDS011;1280;49.760;9.664;2023-10-08T05:55:07;10.73;;;4.63;;
2538;SDS011;1280;49.760;9.664;2023-10-08T05:57:48;14.07;;;4.67;;
2538;SDS011;1280;49.760;9.664;2023-10-08T06:00:29;9.57;;;5.17;;
2538;SDS011;1280;49.760;9.664;2023-10-08T06:03:14;11.00;;;4.93;;
2538;SDS011;1280;49.760;9.664;2023-10-08T06:06:04;12.00;;;4.70;;
2538;SDS011;1280;49.760;9.664;2023-10-08T06:09:03;13.20;;;5.40;;
2538;SDS011;1280;49.760;9.664;2023-10-08T06:11:47;12.60;;;5.40;;
2538;SDS011;1280;49.760;9.664;2023-10-08T06:14:39;15.00;;;4.80;;
2538;SDS011;1280;49.760;9.664;2023-10-08T06:17:35;10.07;;;4.50;;
2538;SDS011;1280;49.760;9.664;2023-10-08T06:20:33;10.20;;;4.63;;
2538;SDS011;1280;49.760;9.664;2023-10-08T06:23:01;10.07;;;5.13;;
2538;SDS011;1280;49.760;9.664;2023-10-08T06:25:33;15.07;;;5.40;;
2538;SDS011;1280;49.760;9.664;2023-10-08T06:28:13;12.73;;;5.40;;
2538;SDS011;1280;49.760;9.664;2023-10-08T06:30:46;19.80;;;4.73;;
2538;SDS011;1280;49.760;9.664;2023-10-08T06:33:15;12.77;;;5.10;;
2538;SDS011;1280;49.760;9.664;2023-10-08T06:35:45;9.47;;;4.90;;
2538;SDS011;1280;49.760;9.664;2023-10-08T06:38:28;14.63;;;5.70;;
2538;SDS011;1280;49.760;9.664;2023-10-08T06:40:57;12.07;;;5.63;;
2538;SDS011;1280;49.760;9.664;2023-10-08T06:43:27;12.50;;;4.40;;
2538;SDS011;1280;49.760;9.664;2023-10-08T06:45:55;12.43;;;5.10;;
2538;SDS011;1280;49.760;9.664;2023-10-08T06:48:24;15.10;;;5.57;;
2538;SDS011;1280;49.760;9.664;2023-10-08T06:50:57;9.10;;;4.43;;
2538;SDS011;1280;49.760;9.664;2023-10-08T06:53:34;10.83;;;4.93;;
2538;SDS011;1280;49.760;9.664;2023-10-08T06:56:07;11.40;;;5.50;;
2538;SDS011;1280;49.760;9.664;2023-10-08T06:58:38;10.37;;;4.70;;
2538;SDS011;1280;49.760;9.664;2023-10-08T07:01:11;10.10;;;4.77;;
2538;SDS011;1280;49.760;9.664;2023-10-08T07:03:40;12.80;;;5.17;;
2538;SDS011;1280;49.760;9.664;2023-10-08T07:06:10;12.67;;;5.67;;
2538;SDS011;1280;49.760;9.664;2023-10-08T07:08:52;12.60;;;5.80;;
2538;SDS011;1280;49.760;9.664;2023-10-08T07:11:22;10.47;;;4.60;;
2538;SDS011;1280;49.760;9.664;2023-10-08T07:13:50;11.43;;;5.37;;
2538;SDS011;1280;49.760;9.664;2023-10-08T07:16:18;9.83;;;4.17;;
2538;SDS011;1280;49.760;9.664;2023-10-08T07:18:47;12.20;;;4.53;;
2538;SDS011;1280;49.760;9.664;2023-10-08T07:21:20;10.23;;;5.30;;
2538;SDS011;1280;49.760;9.664;2023-10-08T07:23:55;14.17;;;5.03;;
2538;SDS011;1280;49.760;9.664;2023-10-08T07:26:27;8.30;;;4.53;;
2538;SDS011;1280;49.760;9.664;2023-10-08T07:29:03;11.37;;;5.27;;
2538;SDS011;1280;49.760;9.664;2023-10-08T07:31:35;14.77;;;6.00;;
2538;SDS011;1280;49.760;9.664;2023-10-08T07:34:08;11.27;;;4.77;;
2538;SDS011;1280;49.760;9.664;2023-10-08T07:36:47;13.63;;;4.60;;
2538;SDS011;1280;49.760;9.664;2023-10-08T07:39:17;12.07;;;5.00;;
2538;SDS011;1280;49.760;9.664;2023-10-08T07:42:03;16.70;;;5.40;;
2538;SDS011;1280;49.760;9.664;2023-10-08T07:44:35;11.13;;;5.30;;
2538;SDS011;1280;49.760;9.664;2023-10-08T07:47:06;11.60;;;5.07;;
2538;SDS011;1280;49.760;9.664;2023-10-08T07:49:38;21.03;;;6.30;;
2538;SDS011;1280;49.760;9.664;2023-10-08T07:52:12;11.33;;;5.60;;
2538;SDS011;1280;49.760;9.664;2023-10-08T07:54:42;10.77;;;4.77;;
2538;SDS011;1280;49.760;9.664;2023-10-08T07:57:11;12.40;;;4.93;;
2538;SDS011;1280;49.760;9.664;2023-10-08T07:59:43;9.33;;;4.97;;
2538;SDS011;1280;49.760;9.664;2023-10-08T08:02:15;11.40;;;5.40;;
2538;SDS011;1280;49.760;9.664;2023-10-08T08:04:49;10.73;;;5.00;;
2538;SDS011;1280;49.760;9.664;2023-10-08T08:07:20;10.90;;;5.27;;
2538;SDS011;1280;49.760;9.664;2023-10-08T08:09:51;11.80;;;5.47;;
2538;SDS011;1280;49.760;9.664;2023-10-08T08:12:25;11.93;;;5.50;;
2538;SDS011;1280;49.760;9.664;2023-10-08T08:14:54;14.93;;;4.70;;
2538;SDS011;1280;49.760;9.664;2023-10-08T08:17:23;15.03;;;5.10;;
2538;SDS011;1280;49.760;9.664;2023-10-08T08:19:52;13.23;;;5.47;;
2538;SDS011;1280;49.760;9.664;2023-10-08T08:22:21;14.13;;;5.37;;
2538;SDS011;1280;49.760;9.664;2023-10-08T08:24:57;15.90;;;5.97;;
2538;SDS011;1280;49.760;9.664;2023-10-08T08:27:32;12.03;;;5.27;;
2538;SDS011;1280;49.760;9.664;2023-10-08T08:30:00;14.27;;;6.07;;
2538;SDS011;1280;49.760;9.664;2023-10-08T08:32:37;13.77;;;6.27;;
2538;SDS011;1280;49.760;9.664;2023-10-08T08:35:07;12.20;;;5.43;;
2538;SDS011;1280;49.760;9.664;2023-10-08T08:37:37;13.67;;;5.43;;
2538;SDS011;1280;49.760;9.664;2023-10-08T08:40:07;10.20;;;4.57;;
2538;SDS011;1280;49.760;9.664;2023-10-08T08:42:36;13.90;;;5.53;;
2538;SDS011;1280;49.760;9.664;2023-10-08T08:45:06;9.70;;;4.50;;
2538;SDS011;1280;49.760;9.664;2023-10-08T08:47:37;12.00;;;5.43;;
2538;SDS011;1280;49.760;9.664;2023-10-08T08:50:08;10.90;;;5.57;;
2538;SDS011;1280;49.760;9.664;2023-10-08T08:52:38;12.37;;;5.30;;
2538;SDS011;1280;49.760;9.664;2023-10-08T08:55:07;12.10;;;5.23;;
2538;SDS011;1280;49.760;9.664;2023-10-08T08:57:41;9.83;;;5.40;;
2538;SDS011;1280;49.760;9.664;2023-10-08T09:00:10;14.77;;;5.30;;
2538;SDS011;1280;49.760;9.664;2023-10-08T09:02:40;12.13;;;5.03;;
2538;SDS011;1280;49.760;9.664;2023-10-08T09:05:11;13.13;;;5.93;;
2538;SDS011;1280;49.760;9.664;2023-10-08T09:07:53;13.60;;;5.37;;
2538;SDS011;1280;49.760;9.664;2023-10-08T09:10:22;11.80;;;4.57;;
2538;SDS011;1280;49.760;9.664;2023-10-08T09:12:55;13.40;;;4.93;;
2538;SDS011;1280;49.760;9.664;2023-10-08T09:15:25;10.97;;;5.33;;
2538;SDS011;1280;49.760;9.664;2023-10-08T09:17:53;12.67;;;5.00;;
2538;SDS011;1280;49.760;9.664;2023-10-08T09:20:22;11.27;;;5.00;;
2538;SDS011;1280;49.760;9.664;2023-10-08T09:23:05;11.43;;;5.33;;
2538;SDS011;1280;49.760;9.664;2023-10-08T09:25:35;11.73;;;5.50;;
2538;SDS011;1280;49.760;9.664;2023-10-08T09:28:03;16.37;;;5.83;;
2538;SDS011;1280;49.760;9.664;2023-10-08T09:30:34;10.90;;;5.47;;
2538;SDS011;1280;49.760;9.664;2023-10-08T09:33:04;11.23;;;4.97;;
2538;SDS011;1280;49.760;9.664;2023-10-08T09:35:33;10.90;;;5.80;;
2538;SDS011;1280;49.760;9.664;2023-10-08T09:38:03;11.10;;;5.50;;
2538;SDS011;1280;49.760;9.664;2023-10-08T09:40:37;11.10;;;5.07;;
2538;SDS011;1280;49.760;9.664;2023-10-08T09:43:07;16.80;;;5.50;;
2538;SDS011;1280;49.760;9.664;2023-10-08T09:45:37;12.10;;;5.60;;
2538;SDS011;1280;49.760;9.664;2023-10-08T09:48:10;12.40;;;5.47;;
2538;SDS011;1280;49.760;9.664;2023-10-08T09:50:40;13.10;;;5.00;;
2538;SDS011;1280;49.760;9.664;2023-10-08T09:53:09;14.00;;;5.87;;
2538;SDS011;1280;49.760;9.664;2023-10-08T09:55:52;10.60;;;5.07;;
2538;SDS011;1280;49.760;9.664;2023-10-08T09:58:21;13.50;;;6.13;;
2538;SDS011;1280;49.760;9.664;2023-10-08T10:00:51;14.50;;;5.40;;
2538;SDS011;1280;49.760;9.664;2023-10-08T10:03:23;13.80;;;6.00;;
2538;SDS011;1280;49.760;9.664;2023-10-08T10:05:53;14.13;;;5.33;;
2538;SDS011;1280;49.760;9.664;2023-10-08T10:08:27;10.97;;;5.00;;
2538;SDS011;1280;49.760;9.664;2023-10-08T10:11:03;11.77;;;5.70;;
2538;SDS011;1280;49.760;9.664;2023-10-08T10:13:38;12.33;;;5.50;;
2538;SDS011;1280;49.760;9.664;2023-10-08T10:16:09;13.23;;;5.93;;
2538;SDS011;1280;49.760;9.664;2023-10-08T10:18:43;12.73;;;5.70;;
2538;SDS011;1280;49.760;9.664;2023-10-08T10:21:26;15.53;;;5.73;;
2538;SDS011;1280;49.760;9.664;2023-10-08T10:23:57;13.17;;;4.83;;
2538;SDS011;1280;49.760;9.664;2023-10-08T10:26:27;13.80;;;6.03;;
2538;SDS011;1280;49.760;9.664;2023-10-08T10:31:52;15.40;;;5.90;;
2538;SDS011;1280;49.760;9.664;2023-10-08T10:34:24;12.60;;;5.50;;
2538;SDS011;1280;49.760;9.664;2023-10-08T10:36:57;15.70;;;5.97;;
2538;SDS011;1280;49.760;9.664;2023-10-08T10:39:29;9.43;;;5.13;;
2538;SDS011;1280;49.760;9.664;2023-10-08T10:42:01;15.50;;;6.23;;
2538;SDS011;1280;49.760;9.664;2023-10-08T10:44:33;10.63;;;5.60;;
2538;SDS011;1280;49.760;9.664;2023-10-08T10:47:03;16.93;;;6.10;;
2538;SDS011;1280;49.760;9.664;2023-10-08T10:49:53;16.00;;;6.10;;
2538;SDS011;1280;49.760;9.664;2023-10-08T10:52:42;15.10;;;7.17;;
2538;SDS011;1280;49.760;9.664;2023-10-08T10:55:20;17.07;;;5.80;;
2538;SDS011;1280;49.760;9.664;2023-10-08T10:57:54;10.80;;;5.70;;
2538;SDS011;1280;49.760;9.664;2023-10-08T11:00:24;13.70;;;7.13;;
2538;SDS011;1280;49.760;9.664;2023-10-08T11:03:10;16.67;;;6.20;;
2538;SDS011;1280;49.760;9.664;2023-10-08T11:05:45;15.83;;;6.03;;
2538;SDS011;1280;49.760;9.664;2023-10-08T11:08:19;15.00;;;6.27;;
2538;SDS011;1280;49.760;9.664;2023-10-08T11:10:53;16.13;;;6.33;;
2538;SDS011;1280;49.760;9.664;2023-10-08T11:13:26;15.40;;;6.80;;
2538;SDS011;1280;49.760;9.664;2023-10-08T11:16:04;12.63;;;6.03;;
2538;SDS011;1280;49.760;9.664;2023-10-08T11:18:34;13.87;;;6.70;;
2538;SDS011;1280;49.760;9.664;2023-10-08T11:21:09;13.30;;;5.90;;
2538;SDS011;1280;49.760;9.664;2023-10-08T11:23:44;14.30;;;5.57;;
2538;SDS011;1280;49.760;9.664;2023-10-08T11:26:22;11.20;;;6.00;;
2538;SDS011;1280;49.760;9.664;2023-10-08T11:29:00;12.03;;;5.47;;
2538;SDS011;1280;49.760;9.664;2023-10-08T11:31:30;14.90;;;6.60;;
2538;SDS011;1280;49.760;9.664;2023-10-08T11:34:01;16.73;;;6.23;;
2538;SDS011;1280;49.760;9.664;2023-10-08T11:36:36;15.73;;;7.00;;
2538;SDS011;1280;49.760;9.664;2023-10-08T11:39:16;18.80;;;5.87;;
2538;SDS011;1280;49.760;9.664;2023-10-08T11:41:55;14.00;;;6.57;;
2538;SDS011;1280;49.760;9.664;2023-10-08T11:44:25;12.07;;;6.60;;
2538;SDS011;1280;49.760;9.664;2023-10-08T11:46:57;15.80;;;7.10;;
2538;SDS011;1280;49.760;9.664;2023-10-08T11:49:32;13.23;;;5.63;;
2538;SDS011;1280;49.760;9.664;2023-10-08T11:52:03;12.93;;;6.47;;
2538;SDS011;1280;49.760;9.664;2023-10-08T11:54:31;15.73;;;6.63;;
2538;SDS011;1280;49.760;9.664;2023-10-08T11:56:59;15.10;;;6.23;;
2538;SDS011;1280;49.760;9.664;2023-10-08T11:59:30;13.80;;;7.10;;
2538;SDS011;1280;49.760;9.664;2023-10-08T12:02:05;15.40;;;6.47;;
2538;SDS011;1280;49.760;9.664;2023-10-08T12:04:34;18.73;;;5.90;;
2538;SDS011;1280;49.760;9.664;2023-10-08T12:07:03;15.50;;;7.53;;
2538;SDS011;1280;49.760;9.664;2023-10-08T12:09:33;16.23;;;6.50;;
2538;SDS011;1280;49.760;9.664;2023-10-08T12:12:07;13.83;;;6.43;;
2538;SDS011;1280;49.760;9.664;2023-10-08T12:14:37;13.90;;;6.07;;
2538;SDS011;1280;49.760;9.664;2023-10-08T12:17:05;13.17;;;6.53;;
2538;SDS011;1280;49.760;9.664;2023-10-08T12:19:38;16.03;;;6.80;;
2538;SDS011;1280;49.760;9.664;2023-10-08T12:22:07;15.33;;;6.77;;
2538;SDS011;1280;49.760;9.664;2023-10-08T12:24:37;11.17;;;6.27;;
2538;SDS011;1280;49.760;9.664;2023-10-08T12:27:05;15.57;;;6.43;;
2538;SDS011;1280;49.760;9.664;2023-10-08T12:29:35;12.40;;;6.10;;
2538;SDS011;1280;49.760;9.664;2023-10-08T12:32:05;17.60;;;6.90;;
2538;SDS011;1280;49.760;9.664;2023-10-08T12:34:44;14.70;;;6.50;;
2538;SDS011;1280;49.760;9.664;2023-10-08T12:37:13;11.87;;;5.53;;
2538;SDS011;1280;49.760;9.664;2023-10-08T12:39:42;13.57;;;6.50;;
2538;SDS011;1280;49.760;9.664;2023-10-08T12:42:27;12.47;;;6.67;;
2538;SDS011;1280;49.760;9.664;2023-10-08T12:44:57;13.73;;;6.90;;
2538;SDS011;1280;49.760;9.664;2023-10-08T12:47:30;14.87;;;6.33;;
2538;SDS011;1280;49.760;9.664;2023-10-08T12:49:59;17.40;;;6.60;;
2538;SDS011;1280;49.760;9.664;2023-10-08T12:52:27;13.43;;;7.10;;
2538;SDS011;1280;49.760;9.664;2023-10-08T12:54:55;19.00;;;6.70;;
2538;SDS011;1280;49.760;9.664;2023-10-08T12:57:30;13.30;;;5.57;;
2538;SDS011;1280;49.760;9.664;2023-10-08T13:00:00;16.80;;;6.27;;
2538;SDS011;1280;49.760;9.664;2023-10-08T13:02:32;17.17;;;6.60;;
2538;SDS011;1280;49.760;9.664;2023-10-08T13:05:05;16.00;;;6.57;;
2538;SDS011;1280;49.760;9.664;2023-10-08T13:07:42;16.30;;;7.23;;
2538;SDS011;1280;49.760;9.664;2023-10-08T13:10:12;16.57;;;6.60;;
2538;SDS011;1280;49.760;9.664;2023-10-08T13:12:41;13.00;;;6.67;;
2538;SDS011;1280;49.760;9.664;2023-10-08T13:15:09;17.00;;;7.50;;
2538;SDS011;1280;49.760;9.664;2023-10-08T13:17:40;13.13;;;6.67;;
2538;SDS011;1280;49.760;9.664;2023-10-08T13:20:09;15.47;;;6.90;;
2538;SDS011;1280;49.760;9.664;2023-10-08T13:22:38;16.50;;;7.23;;
2538;SDS011;1280;49.760;9.664;2023-10-08T13:25:07;21.07;;;7.07;;
2538;SDS011;1280;49.760;9.664;2023-10-08T13:27:35;16.40;;;7.53;;
2538;SDS011;1280;49.760;9.664;2023-10-08T13:30:07;15.63;;;6.70;;
2538;SDS011;1280;49.760;9.664;2023-10-08T13:32:43;18.00;;;6.83;;
2538;SDS011;1280;49.760;9.664;2023-10-08T13:35:12;20.03;;;6.90;;
2538;SDS011;1280;49.760;9.664;2023-10-08T13:37:40;21.67;;;7.37;;
2538;SDS011;1280;49.760;9.664;2023-10-08T13:40:09;13.17;;;6.47;;
2538;SDS011;1280;49.760;9.664;2023-10-08T13:42:41;23.03;;;7.67;;
2538;SDS011;1280;49.760;9.664;2023-10-08T13:45:10;16.90;;;6.37;;
2538;SDS011;1280;49.760;9.664;2023-10-08T13:47:53;16.10;;;7.20;;
2538;SDS011;1280;49.760;9.664;2023-10-08T13:50:23;15.90;;;5.93;;
2538;SDS011;1280;49.760;9.664;2023-10-08T13:52:51;17.23;;;7.00;;
2538;SDS011;1280;49.760;9.664;2023-10-08T13:55:19;18.40;;;7.03;;
2538;SDS011;1280;49.760;9.664;2023-10-08T13:57:51;20.43;;;7.13;;
2538;SDS011;1280;49.760;9.664;2023-10-08T14:00:20;18.23;;;6.73;;
2538;SDS011;1280;49.760;9.664;2023-10-08T14:02:53;20.53;;;7.63;;
2538;SDS011;1280;49.760;9.664;2023-10-08T14:05:23;23.20;;;7.00;;
2538;SDS011;1280;49.760;9.664;2023-10-08T14:07:52;14.87;;;7.47;;
2538;SDS011;1280;49.760;9.664;2023-10-08T14:10:22;19.07;;;7.07;;
2538;SDS011;1280;49.760;9.664;2023-10-08T14:12:56;14.53;;;6.67;;
2538;SDS011;1280;49.760;9.664;2023-10-08T14:15:27;22.43;;;8.10;;
2538;SDS011;1280;49.760;9.664;2023-10-08T14:18:00;14.70;;;6.13;;
2538;SDS011;1280;49.760;9.664;2023-10-08T14:20:34;14.87;;;7.10;;
2538;SDS011;1280;49.760;9.664;2023-10-08T14:23:04;13.00;;;6.33;;
2538;SDS011;1280;49.760;9.664;2023-10-08T14:25:32;16.97;;;7.10;;
2538;SDS011;1280;49.760;9.664;2023-10-08T14:28:08;18.63;;;7.27;;
2538;SDS011;1280;49.760;9.664;2023-10-08T14:30:48;19.67;;;7.87;;
2538;SDS011;1280;49.760;9.664;2023-10-08T14:33:23;21.73;;;6.70;;
2538;SDS011;1280;49.760;9.664;2023-10-08T14:35:54;13.80;;;6.90;;
2538;SDS011;1280;49.760;9.664;2023-10-08T14:38:40;17.53;;;6.97;;
2538;SDS011;1280;49.760;9.664;2023-10-08T14:41:25;18.67;;;6.33;;
2538;SDS011;1280;49.760;9.664;2023-10-08T14:44:11;15.27;;;7.13;;
2538;SDS011;1280;49.760;9.664;2023-10-08T14:46:41;17.93;;;6.67;;
2538;SDS011;1280;49.760;9.664;2023-10-08T14:49:10;17.73;;;7.47;;
2538;SDS011;1280;49.760;9.664;2023-10-08T14:51:39;18.93;;;7.70;;
2538;SDS011;1280;49.760;9.664;2023-10-08T14:54:07;14.63;;;6.53;;
2538;SDS011;1280;49.760;9.664;2023-10-08T14:56:35;15.50;;;6.73;;
2538;SDS011;1280;49.760;9.664;2023-10-08T14:59:04;18.40;;;7.10;;
2538;SDS011;1280;49.760;9.664;2023-10-08T15:01:33;21.80;;;8.00;;
2538;SDS011;1280;49.760;9.664;2023-10-08T15:04:01;17.30;;;7.40;;
2538;SDS011;1280;49.760;9.664;2023-10-08T15:06:32;16.87;;;8.23;;
2538;SDS011;1280;49.760;9.664;2023-10-08T15:09:01;15.70;;;8.00;;
2538;SDS011;1280;49.760;9.664;2023-10-08T15:11:29;13.00;;;6.90;;
2538;SDS011;1280;49.760;9.664;2023-10-08T15:13:57;15.73;;;7.10;;
2538;SDS011;1280;49.760;9.664;2023-10-08T15:16:25;15.77;;;6.60;;
2538;SDS011;1280;49.760;9.664;2023-10-08T15:18:54;19.70;;;7.50;;
2538;SDS011;1280;49.760;9.664;2023-10-08T15:21:23;16.97;;;6.67;;
2538;SDS011;1280;49.760;9.664;2023-10-08T15:23:53;14.30;;;7.03;;
2538;SDS011;1280;49.760;9.664;2023-10-08T15:26:21;18.83;;;8.30;;
2538;SDS011;1280;49.760;9.664;2023-10-08T15:28:50;17.40;;;7.27;;
2538;SDS011;1280;49.760;9.664;2023-10-08T15:31:19;18.97;;;8.17;;
2538;SDS011;1280;49.760;9.664;2023-10-08T15:33:47;17.13;;;8.67;;
2538;SDS011;1280;49.760;9.664;2023-10-08T15:36:15;19.30;;;9.13;;
2538;SDS011;1280;49.760;9.664;2023-10-08T15:38:43;14.07;;;7.27;;
2538;SDS011;1280;49.760;9.664;2023-10-08T15:41:13;19.27;;;10.00;;
2538;SDS011;1280;49.760;9.664;2023-10-08T15:43:49;18.60;;;8.10;;